< < Back
Terminal Aerodrome Forecast


Current Version              Previous Versions:   1  2  3  4  5  6  7  8  9  

Terminal Aerodrome Forecast

483
FTUS42 KCHS 302330
TAFSAV
TAF
KSAV 302330Z 0100/0124 19005KT P6SM SCT050 BKN090
     FM010300 VRB03KT P6SM BKN150
     FM010900 VRB03KT P6SM SCT040 BKN080
     FM011400 20006KT P6SM SCT040=

Latest METAR

558
SAUS80 KWBC 010600 CCB
MTRSAV
METAR KSAV 010553Z AUTO 00000KT 10SM FEW120 24/23 A3001 RMK AO2 SLP160
60002 T02440228 10244 20233 56005 TSNO


USA.gov is the U.S. government's official web portal to all federal, state and local government web resources and services.